createdAt,value
2023-03-01T00:00:02.304Z,61
2023-03-01T00:20:03.109Z,61
2023-03-01T00:40:02.417Z,61
2023-03-01T01:00:02.841Z,61
2023-03-01T01:20:02.438Z,61
2023-03-01T01:40:02.810Z,62
2023-03-01T02:00:03.163Z,62
2023-03-01T02:20:02.432Z,62
2023-03-01T02:40:02.714Z,62
2023-03-01T03:00:03.099Z,62
2023-03-01T03:20:02.753Z,62
2023-03-01T03:40:03.105Z,62
2023-03-01T04:00:02.497Z,62
2023-03-01T04:20:02.913Z,62
2023-03-01T04:40:02.330Z,62
2023-03-01T05:00:02.930Z,63
2023-03-01T05:20:02.423Z,63
2023-03-01T05:40:02.970Z,62
2023-03-01T06:00:02.255Z,62
2023-03-01T06:20:03.138Z,62
2023-03-01T06:40:02.474Z,62
2023-03-01T07:00:02.843Z,63
2023-03-01T07:20:02.178Z,63
2023-03-01T07:40:02.707Z,64
2023-03-01T08:00:03.135Z,65
2023-03-01T08:20:02.606Z,66
2023-03-01T08:40:03.228Z,66
2023-03-01T09:00:02.776Z,63
2023-03-01T09:20:02.505Z,60
2023-03-01T09:40:02.815Z,56
2023-03-01T10:00:03.992Z,52
2023-03-01T10:20:02.752Z,49
2023-03-01T10:40:03.421Z,46
2023-03-01T11:00:03.783Z,44
2023-03-01T11:20:03.421Z,42
2023-03-01T11:40:02.733Z,39
2023-03-01T12:00:03.237Z,38
2023-03-01T12:20:02.599Z,36
2023-03-01T12:40:03.363Z,36
2023-03-01T13:00:04.062Z,36
2023-03-01T13:20:02.862Z,37
2023-03-01T13:40:02.625Z,38
2023-03-01T14:00:04.245Z,40
2023-03-01T14:20:03.249Z,40
2023-03-01T14:40:02.945Z,41
2023-03-01T15:00:02.949Z,41
2023-03-01T15:20:03.149Z,41
2023-03-01T15:40:02.946Z,41
2023-03-01T16:00:03.482Z,43
2023-03-01T16:20:02.869Z,44
2023-03-01T16:40:02.739Z,45
2023-03-01T17:00:02.941Z,47
2023-03-01T17:20:05.085Z,48
2023-03-01T17:40:02.530Z,50
2023-03-01T18:00:03.453Z,51
2023-03-01T18:20:02.774Z,52
2023-03-01T18:40:03.299Z,53
2023-03-01T19:00:03.447Z,54
2023-03-01T19:20:03.532Z,55
2023-03-01T19:40:03.460Z,56
2023-03-01T20:00:03.517Z,56
2023-03-01T20:20:03.049Z,57
2023-03-01T20:40:02.665Z,58
2023-03-01T21:00:03.650Z,58
2023-03-01T21:20:02.733Z,59
2023-03-01T21:40:03.125Z,59
2023-03-01T22:00:02.632Z,60
2023-03-01T22:20:02.408Z,60
2023-03-01T22:40:03.141Z,60
2023-03-01T23:00:02.926Z,61
2023-03-01T23:20:02.768Z,61
2023-03-01T23:40:03.295Z,62
